sensor_id;sensor_type;location;lat;lon;timestamp;pressure;altitude;pressure_sealevel;temperature;humidity
39455;BME280;25155;41.890;23.446;2023-07-31T00:00:21;91507.78;;;22.24;50.40
39455;BME280;25155;41.890;23.446;2023-07-31T00:02:48;91498.91;;;22.33;50.49
39455;BME280;25155;41.890;23.446;2023-07-31T00:05:15;91490.97;;;22.20;51.02
39455;BME280;25155;41.890;23.446;2023-07-31T00:07:42;91499.81;;;22.24;50.44
39455;BME280;25155;41.890;23.446;2023-07-31T00:10:10;91507.34;;;22.22;50.44
39455;BME280;25155;41.890;23.446;2023-07-31T00:12:38;91505.56;;;22.10;50.17
39455;BME280;25155;41.890;23.446;2023-07-31T00:15:06;91498.44;;;22.15;50.63
39455;BME280;25155;41.890;23.446;2023-07-31T00:17:34;91495.81;;;22.15;51.10
39455;BME280;25155;41.890;23.446;2023-07-31T00:20:02;91490.63;;;22.22;50.83
39455;BME280;25155;41.890;23.446;2023-07-31T00:22:29;91509.31;;;22.25;50.83
39455;BME280;25155;41.890;23.446;2023-07-31T00:24:56;91513.63;;;22.30;50.88
39455;BME280;25155;41.890;23.446;2023-07-31T00:27:25;91505.72;;;22.34;50.50
39455;BME280;25155;41.890;23.446;2023-07-31T00:29:52;91503.06;;;22.34;50.68
39455;BME280;25155;41.890;23.446;2023-07-31T00:32:19;91511.47;;;22.36;50.09
39455;BME280;25155;41.890;23.446;2023-07-31T00:34:48;91514.13;;;22.36;51.54
39455;BME280;25155;41.890;23.446;2023-07-31T00:37:15;91509.59;;;22.36;51.10
39455;BME280;25155;41.890;23.446;2023-07-31T00:39:42;91519.09;;;22.37;50.75
39455;BME280;25155;41.890;23.446;2023-07-31T00:42:09;91524.47;;;22.41;50.74
39455;BME280;25155;41.890;23.446;2023-07-31T00:44:37;91532.91;;;22.43;50.95
39455;BME280;25155;41.890;23.446;2023-07-31T00:47:05;91529.91;;;22.44;50.95
39455;BME280;25155;41.890;23.446;2023-07-31T00:49:32;91533.72;;;22.47;50.74
39455;BME280;25155;41.890;23.446;2023-07-31T00:52:01;91539.03;;;22.47;50.18
39455;BME280;25155;41.890;23.446;2023-07-31T00:54:28;91533.03;;;22.50;50.79
39455;BME280;25155;41.890;23.446;2023-07-31T00:56:56;91540.59;;;22.48;50.92
39455;BME280;25155;41.890;23.446;2023-07-31T00:59:24;91540.53;;;22.44;50.66
39455;BME280;25155;41.890;23.446;2023-07-31T01:01:51;91552.66;;;22.45;50.31
39455;BME280;25155;41.890;23.446;2023-07-31T01:04:19;91553.34;;;22.42;50.75
39455;BME280;25155;41.890;23.446;2023-07-31T01:06:52;91563.16;;;22.38;50.48
39455;BME280;25155;41.890;23.446;2023-07-31T01:09:30;91559.28;;;22.36;50.66
39455;BME280;25155;41.890;23.446;2023-07-31T01:12:02;91563.81;;;22.35;50.70
39455;BME280;25155;41.890;23.446;2023-07-31T01:14:30;91560.84;;;22.37;50.79
39455;BME280;25155;41.890;23.446;2023-07-31T01:16:57;91560.84;;;22.37;50.80
39455;BME280;25155;41.890;23.446;2023-07-31T01:19:26;91559.13;;;22.28;52.24
39455;BME280;25155;41.890;23.446;2023-07-31T01:22:16;91553.88;;;22.16;53.51
39455;BME280;25155;41.890;23.446;2023-07-31T01:24:56;91554.66;;;22.17;52.96
39455;BME280;25155;41.890;23.446;2023-07-31T01:27:32;91554.66;;;22.17;52.71
39455;BME280;25155;41.890;23.446;2023-07-31T01:30:08;91548.81;;;22.11;54.02
39455;BME280;25155;41.890;23.446;2023-07-31T01:32:41;91544.63;;;21.94;54.47
39455;BME280;25155;41.890;23.446;2023-07-31T01:35:09;91546.75;;;21.88;55.24
39455;BME280;25155;41.890;23.446;2023-07-31T01:37:36;91542.81;;;21.82;54.91
39455;BME280;25155;41.890;23.446;2023-07-31T01:40:06;91528.00;;;21.81;55.05
39455;BME280;25155;41.890;23.446;2023-07-31T01:42:35;91535.94;;;21.81;55.03
39455;BME280;25155;41.890;23.446;2023-07-31T01:45:02;91533.56;;;21.76;55.16
39455;BME280;25155;41.890;23.446;2023-07-31T01:47:29;91523.78;;;21.64;56.27
39455;BME280;25155;41.890;23.446;2023-07-31T01:49:56;91517.38;;;21.65;56.01
39455;BME280;25155;41.890;23.446;2023-07-31T01:52:23;91515.91;;;21.52;57.36
39455;BME280;25155;41.890;23.446;2023-07-31T01:54:50;91504.72;;;21.46;57.09
39455;BME280;25155;41.890;23.446;2023-07-31T01:57:17;91505.75;;;21.42;57.48
39455;BME280;25155;41.890;23.446;2023-07-31T01:59:46;91508.84;;;21.44;56.95
39455;BME280;25155;41.890;23.446;2023-07-31T02:02:13;91504.50;;;21.51;56.85
39455;BME280;25155;41.890;23.446;2023-07-31T02:04:40;91500.91;;;21.60;56.82
39455;BME280;25155;41.890;23.446;2023-07-31T02:07:07;91498.47;;;21.67;56.41
39455;BME280;25155;41.890;23.446;2023-07-31T02:09:34;91497.53;;;21.75;56.05
39455;BME280;25155;41.890;23.446;2023-07-31T02:12:01;91513.63;;;21.82;55.97
39455;BME280;25155;41.890;23.446;2023-07-31T02:14:29;91514.03;;;21.84;56.24
39455;BME280;25155;41.890;23.446;2023-07-31T02:16:57;91525.78;;;21.83;56.33
39455;BME280;25155;41.890;23.446;2023-07-31T02:19:24;91516.94;;;21.79;58.47
39455;BME280;25155;41.890;23.446;2023-07-31T02:21:51;91520.53;;;21.71;58.91
39455;BME280;25155;41.890;23.446;2023-07-31T02:24:18;91519.00;;;21.70;58.10
39455;BME280;25155;41.890;23.446;2023-07-31T02:26:45;91520.53;;;21.71;57.86
39455;BME280;25155;41.890;23.446;2023-07-31T02:29:12;91525.25;;;21.78;59.71
39455;BME280;25155;41.890;23.446;2023-07-31T02:31:39;91527.41;;;21.72;58.99
39455;BME280;25155;41.890;23.446;2023-07-31T02:34:08;91524.56;;;21.65;59.02
39455;BME280;25155;41.890;23.446;2023-07-31T02:36:35;91522.25;;;21.63;58.93
39455;BME280;25155;41.890;23.446;2023-07-31T02:39:02;91530.56;;;21.62;58.63
39455;BME280;25155;41.890;23.446;2023-07-31T02:41:29;91534.31;;;21.61;58.48
39455;BME280;25155;41.890;23.446;2023-07-31T02:43:57;91525.94;;;21.59;58.54
39455;BME280;25155;41.890;23.446;2023-07-31T02:46:24;91522.16;;;21.60;58.78
39455;BME280;25155;41.890;23.446;2023-07-31T02:48:51;91515.72;;;21.61;59.08
39455;BME280;25155;41.890;23.446;2023-07-31T02:51:19;91522.06;;;21.56;59.73
39455;BME280;25155;41.890;23.446;2023-07-31T02:53:47;91517.75;;;21.51;59.50
39455;BME280;25155;41.890;23.446;2023-07-31T02:56:15;91517.69;;;21.48;59.42
39455;BME280;25155;41.890;23.446;2023-07-31T02:58:42;91520.63;;;21.46;59.37
39455;BME280;25155;41.890;23.446;2023-07-31T03:01:09;91523.19;;;21.43;60.60
39455;BME280;25155;41.890;23.446;2023-07-31T03:03:36;91521.22;;;21.39;59.83
39455;BME280;25155;41.890;23.446;2023-07-31T03:06:03;91517.81;;;21.39;59.49
39455;BME280;25155;41.890;23.446;2023-07-31T03:08:32;91513.59;;;21.38;59.87
39455;BME280;25155;41.890;23.446;2023-07-31T03:10:59;91520.13;;;21.41;59.72
39455;BME280;25155;41.890;23.446;2023-07-31T03:13:26;91525.84;;;21.43;59.96
39455;BME280;25155;41.890;23.446;2023-07-31T03:15:53;91528.09;;;21.41;59.40
39455;BME280;25155;41.890;23.446;2023-07-31T03:18:20;91532.50;;;21.36;59.76
39455;BME280;25155;41.890;23.446;2023-07-31T03:20:47;91534.66;;;21.31;60.46
39455;BME280;25155;41.890;23.446;2023-07-31T03:23:14;91541.84;;;21.30;60.51
39455;BME280;25155;41.890;23.446;2023-07-31T03:25:55;91549.59;;;21.23;60.30
39455;BME280;25155;41.890;23.446;2023-07-31T03:28:23;91549.72;;;21.27;59.68
39455;BME280;25155;41.890;23.446;2023-07-31T03:30:51;91553.47;;;21.26;60.96
39455;BME280;25155;41.890;23.446;2023-07-31T03:33:18;91553.16;;;21.15;63.01
39455;BME280;25155;41.890;23.446;2023-07-31T03:35:45;91560.63;;;20.97;64.08
39455;BME280;25155;41.890;23.446;2023-07-31T03:38:12;91547.06;;;20.86;64.08
39455;BME280;25155;41.890;23.446;2023-07-31T03:40:39;91550.13;;;20.88;63.03
39455;BME280;25155;41.890;23.446;2023-07-31T03:43:07;91548.72;;;20.91;62.30
39455;BME280;25155;41.890;23.446;2023-07-31T03:45:35;91551.78;;;20.93;62.07
39455;BME280;25155;41.890;23.446;2023-07-31T03:48:03;91551.13;;;20.96;61.89
39455;BME280;25155;41.890;23.446;2023-07-31T03:50:31;91544.25;;;20.95;61.46
39455;BME280;25155;41.890;23.446;2023-07-31T03:52:58;91554.41;;;21.05;61.83
39455;BME280;25155;41.890;23.446;2023-07-31T03:55:25;91555.19;;;21.06;61.63
39455;BME280;25155;41.890;23.446;2023-07-31T03:57:52;91559.38;;;21.07;61.63
39455;BME280;25155;41.890;23.446;2023-07-31T04:00:20;91565.78;;;21.06;61.79
39455;BME280;25155;41.890;23.446;2023-07-31T04:02:48;91576.81;;;21.08;62.38
39455;BME280;25155;41.890;23.446;2023-07-31T04:05:15;91571.00;;;21.02;61.92
39455;BME280;25155;41.890;23.446;2023-07-31T04:07:42;91568.22;;;20.98;62.32
39455;BME280;25155;41.890;23.446;2023-07-31T04:10:09;91573.09;;;20.96;62.50
39455;BME280;25155;41.890;23.446;2023-07-31T04:12:37;91574.56;;;20.94;62.03
39455;BME280;25155;41.890;23.446;2023-07-31T04:15:04;91581.38;;;20.95;62.02
39455;BME280;25155;41.890;23.446;2023-07-31T04:17:33;91582.50;;;20.94;61.72
39455;BME280;25155;41.890;23.446;2023-07-31T04:20:00;91572.75;;;20.98;61.81
39455;BME280;25155;41.890;23.446;2023-07-31T04:22:28;91574.75;;;21.01;61.61
39455;BME280;25155;41.890;23.446;2023-07-31T04:24:55;91570.31;;;21.05;61.70
39455;BME280;25155;41.890;23.446;2023-07-31T04:27:22;91574.16;;;21.08;62.55
39455;BME280;25155;41.890;23.446;2023-07-31T04:29:49;91573.41;;;21.07;62.70
39455;BME280;25155;41.890;23.446;2023-07-31T04:32:16;91571.94;;;21.10;62.61
39455;BME280;25155;41.890;23.446;2023-07-31T04:34:46;91568.97;;;21.11;62.30
39455;BME280;25155;41.890;23.446;2023-07-31T04:37:13;91570.53;;;21.12;62.95
39455;BME280;25155;41.890;23.446;2023-07-31T04:39:40;91578.50;;;21.00;65.38
39455;BME280;25155;41.890;23.446;2023-07-31T04:42:07;91578.41;;;20.96;65.60
39455;BME280;25155;41.890;23.446;2023-07-31T04:44:35;91580.03;;;21.01;64.36
39455;BME280;25155;41.890;23.446;2023-07-31T04:47:02;91572.63;;;21.07;63.94
39455;BME280;25155;41.890;23.446;2023-07-31T04:49:30;91581.56;;;21.14;63.99
39455;BME280;25155;41.890;23.446;2023-07-31T04:51:58;91576.81;;;21.20;63.53
39455;BME280;25155;41.890;23.446;2023-07-31T04:54:25;91569.47;;;21.29;63.02
39455;BME280;25155;41.890;23.446;2023-07-31T04:56:52;91572.66;;;21.35;63.04
39455;BME280;25155;41.890;23.446;2023-07-31T04:59:19;91569.75;;;21.40;62.42
39455;BME280;25155;41.890;23.446;2023-07-31T05:01:46;91566.06;;;21.45;62.45
39455;BME280;25155;41.890;23.446;2023-07-31T05:04:14;91570.06;;;21.51;62.36
39455;BME280;25155;41.890;23.446;2023-07-31T05:06:42;91564.50;;;21.56;62.34
39455;BME280;25155;41.890;23.446;2023-07-31T05:09:10;91566.06;;;21.57;62.57
39455;BME280;25155;41.890;23.446;2023-07-31T05:11:38;91574.13;;;21.61;62.04
39455;BME280;25155;41.890;23.446;2023-07-31T05:14:06;91575.00;;;21.65;61.94
39455;BME280;25155;41.890;23.446;2023-07-31T05:16:33;91586.88;;;21.71;62.03
39455;BME280;25155;41.890;23.446;2023-07-31T05:19:00;91586.63;;;21.76;62.82
39455;BME280;25155;41.890;23.446;2023-07-31T05:21:27;91595.47;;;21.80;63.48
39455;BME280;25155;41.890;23.446;2023-07-31T05:23:54;91590.59;;;21.82;63.54
39455;BME280;25155;41.890;23.446;2023-07-31T05:26:23;91592.91;;;21.84;62.76
39455;BME280;25155;41.890;23.446;2023-07-31T05:28:50;91583.94;;;21.88;63.21
39455;BME280;25155;41.890;23.446;2023-07-31T05:31:17;91582.81;;;21.89;63.34
39455;BME280;25155;41.890;23.446;2023-07-31T05:33:44;91577.94;;;21.91;63.71
39455;BME280;25155;41.890;23.446;2023-07-31T05:36:11;91581.69;;;21.90;64.41
39455;BME280;25155;41.890;23.446;2023-07-31T05:38:38;91593.19;;;21.95;63.61
39455;BME280;25155;41.890;23.446;2023-07-31T05:41:06;91584.97;;;22.00;63.05
39455;BME280;25155;41.890;23.446;2023-07-31T05:43:34;91582.75;;;22.02;63.14
39455;BME280;25155;41.890;23.446;2023-07-31T05:46:02;91587.38;;;22.05;62.33
39455;BME280;25155;41.890;23.446;2023-07-31T05:48:29;91583.25;;;22.07;62.43
39455;BME280;25155;41.890;23.446;2023-07-31T05:50:56;91583.78;;;22.13;62.51
39455;BME280;25155;41.890;23.446;2023-07-31T05:53:23;91581.63;;;22.19;62.73
39455;BME280;25155;41.890;23.446;2023-07-31T05:55:50;91576.22;;;22.15;62.57
39455;BME280;25155;41.890;23.446;2023-07-31T05:58:17;91581.72;;;22.22;62.44
39455;BME280;25155;41.890;23.446;2023-07-31T06:00:46;91585.25;;;22.26;62.35
39455;BME280;25155;41.890;23.446;2023-07-31T06:03:13;91585.69;;;22.28;61.54
39455;BME280;25155;41.890;23.446;2023-07-31T06:05:40;91582.69;;;22.30;61.76
39455;BME280;25155;41.890;23.446;2023-07-31T06:08:07;91581.25;;;22.33;61.49
39455;BME280;25155;41.890;23.446;2023-07-31T06:10:34;91585.59;;;22.41;61.54
39455;BME280;25155;41.890;23.446;2023-07-31T06:13:01;91580.88;;;22.50;60.85
39455;BME280;25155;41.890;23.446;2023-07-31T06:15:28;91580.69;;;22.59;61.02
39455;BME280;25155;41.890;23.446;2023-07-31T06:17:57;91572.09;;;22.65;60.83
39455;BME280;25155;41.890;23.446;2023-07-31T06:20:24;91558.63;;;22.74;60.53
39455;BME280;25155;41.890;23.446;2023-07-31T06:22:51;91563.41;;;22.84;60.23
39455;BME280;25155;41.890;23.446;2023-07-31T06:25:19;91560.19;;;22.95;60.32
39455;BME280;25155;41.890;23.446;2023-07-31T06:27:46;91558.47;;;23.02;60.37
39455;BME280;25155;41.890;23.446;2023-07-31T06:30:13;91556.38;;;23.12;59.50
39455;BME280;25155;41.890;23.446;2023-07-31T06:32:40;91552.22;;;23.11;58.42
39455;BME280;25155;41.890;23.446;2023-07-31T06:35:09;91554.88;;;23.11;58.30
39455;BME280;25155;41.890;23.446;2023-07-31T06:37:36;91552.63;;;23.13;58.90
39455;BME280;25155;41.890;23.446;2023-07-31T06:40:06;91557.66;;;23.18;58.43
39455;BME280;25155;41.890;23.446;2023-07-31T06:42:34;91553.59;;;23.24;58.56
39455;BME280;25155;41.890;23.446;2023-07-31T06:45:02;91543.16;;;23.35;59.53
39455;BME280;25155;41.890;23.446;2023-07-31T06:47:29;91556.34;;;23.47;58.74
39455;BME280;25155;41.890;23.446;2023-07-31T06:49:56;91546.31;;;23.60;59.75
39455;BME280;25155;41.890;23.446;2023-07-31T06:52:24;91543.34;;;23.65;58.70
39455;BME280;25155;41.890;23.446;2023-07-31T06:55:01;91540.34;;;23.67;57.77
39455;BME280;25155;41.890;23.446;2023-07-31T06:57:30;91542.47;;;23.81;57.65
39455;BME280;25155;41.890;23.446;2023-07-31T06:59:57;91547.59;;;23.89;57.20
39455;BME280;25155;41.890;23.446;2023-07-31T07:02:24;91547.44;;;24.02;57.04
39455;BME280;25155;41.890;23.446;2023-07-31T07:04:51;91536.91;;;24.09;56.87
39455;BME280;25155;41.890;23.446;2023-07-31T07:07:18;91533.28;;;24.21;56.34
39455;BME280;25155;41.890;23.446;2023-07-31T07:09:47;91537.19;;;24.27;56.24
39455;BME280;25155;41.890;23.446;2023-07-31T07:12:14;91537.28;;;24.34;55.75
39455;BME280;25155;41.890;23.446;2023-07-31T07:14:41;91537.06;;;24.43;55.59
39455;BME280;25155;41.890;23.446;2023-07-31T07:17:08;91541.25;;;24.44;55.07
39455;BME280;25155;41.890;23.446;2023-07-31T07:19:35;91549.63;;;24.46;54.46
39455;BME280;25155;41.890;23.446;2023-07-31T07:22:02;91548.56;;;24.50;54.65
39455;BME280;25155;41.890;23.446;2023-07-31T07:24:29;91546.06;;;24.58;54.58
39455;BME280;25155;41.890;23.446;2023-07-31T07:26:58;91521.41;;;24.41;52.38
39455;BME280;25155;41.890;23.446;2023-07-31T07:29:26;91493.13;;;24.33;51.85
39455;BME280;25155;41.890;23.446;2023-07-31T07:31:53;91527.09;;;24.40;54.31
39455;BME280;25155;41.890;23.446;2023-07-31T07:34:22;91539.63;;;24.39;53.38
39455;BME280;25155;41.890;23.446;2023-07-31T07:36:49;91530.31;;;24.26;52.34
39455;BME280;25155;41.890;23.446;2023-07-31T07:39:16;91530.44;;;24.10;52.36
39455;BME280;25155;41.890;23.446;2023-07-31T07:41:43;91520.81;;;24.02;53.52
39455;BME280;25155;41.890;23.446;2023-07-31T07:44:12;91520.31;;;23.96;53.75
39455;BME280;25155;41.890;23.446;2023-07-31T07:46:40;91519.50;;;23.92;53.67
39455;BME280;25155;41.890;23.446;2023-07-31T07:49:07;91532.28;;;24.06;54.65
39455;BME280;25155;41.890;23.446;2023-07-31T07:51:34;91536.00;;;24.01;53.93
39455;BME280;25155;41.890;23.446;2023-07-31T07:54:02;91518.94;;;24.06;53.85
39455;BME280;25155;41.890;23.446;2023-07-31T07:56:29;91529.31;;;24.11;53.38
39455;BME280;25155;41.890;23.446;2023-07-31T07:58:56;91524.47;;;23.93;52.95
39455;BME280;25155;41.890;23.446;2023-07-31T08:01:25;91531.16;;;23.84;54.07
39455;BME280;25155;41.890;23.446;2023-07-31T08:03:52;91528.94;;;23.89;54.31
39455;BME280;25155;41.890;23.446;2023-07-31T08:06:20;91537.50;;;23.99;53.43
39455;BME280;25155;41.890;23.446;2023-07-31T08:08:48;91537.44;;;23.95;54.03
39455;BME280;25155;41.890;23.446;2023-07-31T08:11:15;91531.09;;;24.03;53.48
39455;BME280;25155;41.890;23.446;2023-07-31T08:13:42;91533.88;;;24.10;53.03
39455;BME280;25155;41.890;23.446;2023-07-31T08:16:09;91539.19;;;24.10;52.99
39455;BME280;25155;41.890;23.446;2023-07-31T08:18:38;91536.53;;;24.10;53.07
39455;BME280;25155;41.890;23.446;2023-07-31T08:21:06;91537.50;;;23.99;52.49
39455;BME280;25155;41.890;23.446;2023-07-31T08:23:33;91533.78;;;24.03;52.24
39455;BME280;25155;41.890;23.446;2023-07-31T08:26:00;91521.75;;;24.13;52.31
39455;BME280;25155;41.890;23.446;2023-07-31T08:28:27;91528.06;;;24.28;52.94
39455;BME280;25155;41.890;23.446;2023-07-31T08:30:55;91532.13;;;24.45;53.46
39455;BME280;25155;41.890;23.446;2023-07-31T08:33:22;91526.59;;;24.57;51.40
39455;BME280;25155;41.890;23.446;2023-07-31T08:35:50;91536.97;;;24.62;51.49
39455;BME280;25155;41.890;23.446;2023-07-31T08:38:17;91520.97;;;24.62;51.18
39455;BME280;25155;41.890;23.446;2023-07-31T08:40:45;91522.56;;;24.67;51.46
39455;BME280;25155;41.890;23.446;2023-07-31T08:43:12;91520.06;;;24.78;50.91
39455;BME280;25155;41.890;23.446;2023-07-31T08:45:41;91532.00;;;24.88;50.87
39455;BME280;25155;41.890;23.446;2023-07-31T08:48:09;91525.63;;;24.96;50.10
39455;BME280;25155;41.890;23.446;2023-07-31T08:50:38;91513.88;;;25.04;49.47
39455;BME280;25155;41.890;23.446;2023-07-31T08:53:07;91521.81;;;24.97;49.49
39455;BME280;25155;41.890;23.446;2023-07-31T08:55:34;91526.88;;;25.05;49.31
39455;BME280;25155;41.890;23.446;2023-07-31T08:58:04;91528.06;;;25.08;49.29
39455;BME280;25155;41.890;23.446;2023-07-31T09:00:32;91506.00;;;25.11;49.43
39455;BME280;25155;41.890;23.446;2023-07-31T09:03:00;91522.19;;;25.26;48.82
39455;BME280;25155;41.890;23.446;2023-07-31T09:05:30;91525.19;;;25.24;49.10
39455;BME280;25155;41.890;23.446;2023-07-31T09:07:57;91516.38;;;25.20;49.18
39455;BME280;25155;41.890;23.446;2023-07-31T09:10:26;91541.56;;;25.22;49.05
39455;BME280;25155;41.890;23.446;2023-07-31T09:12:55;91535.44;;;25.22;48.01
39455;BME280;25155;41.890;23.446;2023-07-31T09:15:23;91530.25;;;25.29;47.33
39455;BME280;25155;41.890;23.446;2023-07-31T09:17:59;91540.97;;;25.33;47.15
39455;BME280;25155;41.890;23.446;2023-07-31T09:20:26;91548.34;;;25.47;47.00
39455;BME280;25155;41.890;23.446;2023-07-31T09:22:53;91521.38;;;25.55;46.42
39455;BME280;25155;41.890;23.446;2023-07-31T09:25:23;91528.25;;;25.56;46.79
39455;BME280;25155;41.890;23.446;2023-07-31T09:27:54;91546.59;;;25.62;46.45
39455;BME280;25155;41.890;23.446;2023-07-31T09:30:21;91529.53;;;25.70;45.50
39455;BME280;25155;41.890;23.446;2023-07-31T09:32:50;91528.78;;;25.73;44.68
39455;BME280;25155;41.890;23.446;2023-07-31T09:35:21;91525.78;;;25.78;45.33
39455;BME280;25155;41.890;23.446;2023-07-31T09:37:51;91533.25;;;25.95;44.37
39455;BME280;25155;41.890;23.446;2023-07-31T09:40:31;91524.13;;;26.00;44.29
39455;BME280;25155;41.890;23.446;2023-07-31T09:43:01;91526.03;;;26.03;43.90
39455;BME280;25155;41.890;23.446;2023-07-31T09:45:33;91516.16;;;26.04;44.39
39455;BME280;25155;41.890;23.446;2023-07-31T09:48:00;91512.75;;;26.10;44.03
39455;BME280;25155;41.890;23.446;2023-07-31T09:50:29;91512.06;;;26.17;43.54
39455;BME280;25155;41.890;23.446;2023-07-31T09:52:56;91505.16;;;26.16;43.22
39455;BME280;25155;41.890;23.446;2023-07-31T09:55:24;91506.63;;;26.10;43.34
39455;BME280;25155;41.890;23.446;2023-07-31T09:57:51;91515.06;;;26.12;42.77
39455;BME280;25155;41.890;23.446;2023-07-31T10:00:23;91500.91;;;26.08;42.78
39455;BME280;25155;41.890;23.446;2023-07-31T10:02:53;91518.91;;;26.18;43.13
39455;BME280;25155;41.890;23.446;2023-07-31T10:05:21;91498.38;;;26.29;43.05
39455;BME280;25155;41.890;23.446;2023-07-31T10:07:51;91509.16;;;26.37;41.98
39455;BME280;25155;41.890;23.446;2023-07-31T10:10:21;91493.06;;;26.33;42.85
39455;BME280;25155;41.890;23.446;2023-07-31T10:12:49;91491.59;;;26.43;41.63
39455;BME280;25155;41.890;23.446;2023-07-31T10:15:16;91497.78;;;26.50;41.89
39455;BME280;25155;41.890;23.446;2023-07-31T10:17:47;91481.06;;;26.64;42.35
39455;BME280;25155;41.890;23.446;2023-07-31T10:20:14;91489.50;;;26.66;41.39
39455;BME280;25155;41.890;23.446;2023-07-31T10:22:42;91475.66;;;26.54;41.19
39455;BME280;25155;41.890;23.446;2023-07-31T10:25:10;91479.50;;;26.60;41.75
39455;BME280;25155;41.890;23.446;2023-07-31T10:27:39;91471.53;;;26.63;41.75
39455;BME280;25155;41.890;23.446;2023-07-31T10:30:08;91475.69;;;26.61;40.68
39455;BME280;25155;41.890;23.446;2023-07-31T10:32:37;91469.63;;;26.64;41.94
39455;BME280;25155;41.890;23.446;2023-07-31T10:35:07;91477.34;;;26.76;40.62
39455;BME280;25155;41.890;23.446;2023-07-31T10:37:37;91448.22;;;26.67;39.77
39455;BME280;25155;41.890;23.446;2023-07-31T10:40:09;91462.78;;;26.66;40.09
39455;BME280;25155;41.890;23.446;2023-07-31T10:42:45;91463.47;;;26.60;40.36
39455;BME280;25155;41.890;23.446;2023-07-31T10:45:23;91457.81;;;26.68;40.79
39455;BME280;25155;41.890;23.446;2023-07-31T10:47:58;91455.16;;;26.76;40.66
39455;BME280;25155;41.890;23.446;2023-07-31T10:50:31;91456.72;;;26.84;40.45
39455;BME280;25155;41.890;23.446;2023-07-31T10:52:59;91448.34;;;26.89;41.41
39455;BME280;25155;41.890;23.446;2023-07-31T10:55:30;91435.38;;;26.91;41.02
39455;BME280;25155;41.890;23.446;2023-07-31T10:57:58;91451.47;;;27.05;40.36
39455;BME280;25155;41.890;23.446;2023-07-31T11:00:31;91431.22;;;27.04;39.89
39455;BME280;25155;41.890;23.446;2023-07-31T11:03:00;91434.66;;;27.09;40.27
39455;BME280;25155;41.890;23.446;2023-07-31T11:05:50;91445.75;;;27.14;39.83
39455;BME280;25155;41.890;23.446;2023-07-31T11:08:21;91450.38;;;27.21;39.79
39455;BME280;25155;41.890;23.446;2023-07-31T11:10:51;91444.22;;;27.13;38.96
39455;BME280;25155;41.890;23.446;2023-07-31T11:13:20;91452.25;;;27.10;39.01
39455;BME280;25155;41.890;23.446;2023-07-31T11:15:47;91440.00;;;27.09;39.35
39455;BME280;25155;41.890;23.446;2023-07-31T11:18:14;91441.56;;;27.20;39.13
39455;BME280;25155;41.890;23.446;2023-07-31T11:20:42;91430.94;;;27.31;38.34
39455;BME280;25155;41.890;23.446;2023-07-31T11:23:11;91443.94;;;27.29;38.29
39455;BME280;25155;41.890;23.446;2023-07-31T11:25:39;91438.94;;;27.28;39.33
39455;BME280;25155;41.890;23.446;2023-07-31T11:28:10;91441.31;;;27.51;38.49
39455;BME280;25155;41.890;23.446;2023-07-31T11:30:38;91437.09;;;27.53;37.24
39455;BME280;25155;41.890;23.446;2023-07-31T11:33:07;91443.56;;;27.49;37.82
39455;BME280;25155;41.890;23.446;2023-07-31T11:35:40;91438.97;;;27.46;38.15
39455;BME280;25155;41.890;23.446;2023-07-31T11:38:11;91450.84;;;27.55;37.63
39455;BME280;25155;41.890;23.446;2023-07-31T11:40:41;91428.25;;;27.46;38.10
39455;BME280;25155;41.890;23.446;2023-07-31T11:43:09;91446.66;;;27.58;38.77
39455;BME280;25155;41.890;23.446;2023-07-31T11:45:38;91439.41;;;27.66;37.48
39455;BME280;25155;41.890;23.446;2023-07-31T11:48:07;91443.22;;;27.68;36.70
39455;BME280;25155;41.890;23.446;2023-07-31T11:50:36;91429.47;;;27.63;37.05
39455;BME280;25155;41.890;23.446;2023-07-31T11:53:07;91424.84;;;27.67;37.05
39455;BME280;25155;41.890;23.446;2023-07-31T11:55:36;91436.34;;;27.67;37.02
39455;BME280;25155;41.890;23.446;2023-07-31T11:58:04;91421.44;;;27.63;36.80
39455;BME280;25155;41.890;23.446;2023-07-31T12:00:32;91426.78;;;27.59;37.12
39455;BME280;25155;41.890;23.446;2023-07-31T12:02:59;91435.22;;;27.79;37.77
39455;BME280;25155;41.890;23.446;2023-07-31T12:05:26;91431.75;;;27.82;36.86
39455;BME280;25155;41.890;23.446;2023-07-31T12:07:55;91431.78;;;27.86;37.14
39455;BME280;25155;41.890;23.446;2023-07-31T12:10:24;91431.38;;;27.91;36.86
39455;BME280;25155;41.890;23.446;2023-07-31T12:13:04;91434.09;;;28.05;36.84
39455;BME280;25155;41.890;23.446;2023-07-31T12:15:42;91429.50;;;28.13;36.25
39455;BME280;25155;41.890;23.446;2023-07-31T12:18:11;91440.97;;;28.21;35.51
39455;BME280;25155;41.890;23.446;2023-07-31T12:20:43;91441.72;;;28.25;35.56
39455;BME280;25155;41.890;23.446;2023-07-31T12:23:19;91428.72;;;28.27;35.67
39455;BME280;25155;41.890;23.446;2023-07-31T12:26:00;91450.53;;;28.22;35.19
39455;BME280;25155;41.890;23.446;2023-07-31T12:28:29;91463.56;;;28.30;36.04
39455;BME280;25155;41.890;23.446;2023-07-31T12:30:58;91473.91;;;28.53;39.92
39455;BME280;25155;41.890;23.446;2023-07-31T12:33:31;91478.09;;;28.76;40.58
39455;BME280;25155;41.890;23.446;2023-07-31T12:35:59;91490.66;;;29.01;41.33
39455;BME280;25155;41.890;23.446;2023-07-31T12:38:27;91510.56;;;29.14;40.90
39455;BME280;25155;41.890;23.446;2023-07-31T12:40:54;91509.06;;;29.13;40.54
39455;BME280;25155;41.890;23.446;2023-07-31T12:43:21;91519.78;;;29.20;40.87
39455;BME280;25155;41.890;23.446;2023-07-31T12:45:50;91514.00;;;29.29;40.81
39455;BME280;25155;41.890;23.446;2023-07-31T12:48:17;91512.84;;;29.34;40.81
39455;BME280;25155;41.890;23.446;2023-07-31T12:50:44;91519.34;;;29.33;40.11
39455;BME280;25155;41.890;23.446;2023-07-31T12:53:11;91516.69;;;29.25;39.25
39455;BME280;25155;41.890;23.446;2023-07-31T12:55:39;91507.50;;;29.19;39.95